sensor_id;sensor_type;location;lat;lon;timestamp;P1;durP1;ratioP1;P2;durP2;ratioP2
39442;SDS011;25147;52.142;9.960;2024-01-11T00:00:27;70.93;;;36.47;;
39442;SDS011;25147;52.142;9.960;2024-01-11T00:02:54;70.30;;;36.07;;
39442;SDS011;25147;52.142;9.960;2024-01-11T00:05:20;73.70;;;37.07;;
39442;SDS011;25147;52.142;9.960;2024-01-11T00:07:47;71.47;;;37.33;;
39442;SDS011;25147;52.142;9.960;2024-01-11T00:10:15;77.67;;;39.47;;
39442;SDS011;25147;52.142;9.960;2024-01-11T00:12:42;74.03;;;38.77;;
39442;SDS011;25147;52.142;9.960;2024-01-11T00:15:09;69.67;;;37.77;;
39442;SDS011;25147;52.142;9.960;2024-01-11T00:17:37;73.03;;;37.70;;
39442;SDS011;25147;52.142;9.960;2024-01-11T00:20:05;63.70;;;35.87;;
39442;SDS011;25147;52.142;9.960;2024-01-11T00:22:33;65.53;;;34.90;;
39442;SDS011;25147;52.142;9.960;2024-01-11T00:25:00;71.40;;;36.80;;
39442;SDS011;25147;52.142;9.960;2024-01-11T00:27:27;69.63;;;36.90;;
39442;SDS011;25147;52.142;9.960;2024-01-11T00:29:53;73.17;;;38.33;;
39442;SDS011;25147;52.142;9.960;2024-01-11T00:32:20;72.77;;;37.33;;
39442;SDS011;25147;52.142;9.960;2024-01-11T00:34:49;69.27;;;36.97;;
39442;SDS011;25147;52.142;9.960;2024-01-11T00:37:16;71.27;;;36.50;;
39442;SDS011;25147;52.142;9.960;2024-01-11T00:39:43;69.23;;;35.77;;
39442;SDS011;25147;52.142;9.960;2024-01-11T00:42:10;69.97;;;38.30;;
39442;SDS011;25147;52.142;9.960;2024-01-11T00:44:36;68.93;;;36.67;;
39442;SDS011;25147;52.142;9.960;2024-01-11T00:47:03;69.83;;;36.47;;
39442;SDS011;25147;52.142;9.960;2024-01-11T00:49:30;67.37;;;36.47;;
39442;SDS011;25147;52.142;9.960;2024-01-11T00:51:59;75.60;;;37.73;;
39442;SDS011;25147;52.142;9.960;2024-01-11T00:54:26;68.73;;;36.37;;
39442;SDS011;25147;52.142;9.960;2024-01-11T00:56:52;68.67;;;36.57;;
39442;SDS011;25147;52.142;9.960;2024-01-11T00:59:19;69.80;;;34.60;;
39442;SDS011;25147;52.142;9.960;2024-01-11T01:01:46;66.00;;;34.93;;
39442;SDS011;25147;52.142;9.960;2024-01-11T01:04:14;62.10;;;35.70;;
39442;SDS011;25147;52.142;9.960;2024-01-11T01:06:41;70.07;;;35.17;;
39442;SDS011;25147;52.142;9.960;2024-01-11T01:09:10;70.13;;;36.40;;
39442;SDS011;25147;52.142;9.960;2024-01-11T01:11:38;69.03;;;36.80;;
39442;SDS011;25147;52.142;9.960;2024-01-11T01:14:05;73.10;;;36.00;;
39442;SDS011;25147;52.142;9.960;2024-01-11T01:16:32;70.60;;;37.83;;
39442;SDS011;25147;52.142;9.960;2024-01-11T01:18:59;72.27;;;36.80;;
39442;SDS011;25147;52.142;9.960;2024-01-11T01:21:26;68.27;;;36.00;;
39442;SDS011;25147;52.142;9.960;2024-01-11T01:23:53;69.43;;;36.03;;
39442;SDS011;25147;52.142;9.960;2024-01-11T01:26:21;71.47;;;36.93;;
39442;SDS011;25147;52.142;9.960;2024-01-11T01:28:48;69.20;;;36.50;;
39442;SDS011;25147;52.142;9.960;2024-01-11T01:31:15;70.97;;;35.60;;
39442;SDS011;25147;52.142;9.960;2024-01-11T01:33:42;64.70;;;33.93;;
39442;SDS011;25147;52.142;9.960;2024-01-11T01:36:09;67.57;;;35.13;;
39442;SDS011;25147;52.142;9.960;2024-01-11T01:38:37;62.20;;;34.83;;
39442;SDS011;25147;52.142;9.960;2024-01-11T01:41:03;72.67;;;37.27;;
39442;SDS011;25147;52.142;9.960;2024-01-11T01:43:32;65.80;;;35.20;;
39442;SDS011;25147;52.142;9.960;2024-01-11T01:45:59;68.70;;;36.00;;
39442;SDS011;25147;52.142;9.960;2024-01-11T01:48:26;64.83;;;36.07;;
39442;SDS011;25147;52.142;9.960;2024-01-11T01:50:54;64.23;;;34.80;;
39442;SDS011;25147;52.142;9.960;2024-01-11T01:53:22;66.07;;;34.73;;
39442;SDS011;25147;52.142;9.960;2024-01-11T01:55:50;64.20;;;36.30;;
39442;SDS011;25147;52.142;9.960;2024-01-11T01:58:19;64.80;;;33.77;;
39442;SDS011;25147;52.142;9.960;2024-01-11T02:00:48;64.37;;;35.93;;
39442;SDS011;25147;52.142;9.960;2024-01-11T02:03:17;67.93;;;35.63;;
39442;SDS011;25147;52.142;9.960;2024-01-11T02:05:44;68.60;;;34.97;;
39442;SDS011;25147;52.142;9.960;2024-01-11T02:08:12;66.57;;;34.43;;
39442;SDS011;25147;52.142;9.960;2024-01-11T02:10:43;64.47;;;35.17;;
39442;SDS011;25147;52.142;9.960;2024-01-11T02:13:11;67.43;;;35.53;;
39442;SDS011;25147;52.142;9.960;2024-01-11T02:15:38;65.73;;;33.77;;
39442;SDS011;25147;52.142;9.960;2024-01-11T02:18:06;66.47;;;34.97;;
39442;SDS011;25147;52.142;9.960;2024-01-11T02:20:34;63.97;;;34.40;;
39442;SDS011;25147;52.142;9.960;2024-01-11T02:23:01;67.33;;;34.20;;
39442;SDS011;25147;52.142;9.960;2024-01-11T02:25:33;64.80;;;34.00;;
39442;SDS011;25147;52.142;9.960;2024-01-11T02:28:00;69.03;;;34.90;;
39442;SDS011;25147;52.142;9.960;2024-01-11T02:30:26;65.37;;;33.80;;
39442;SDS011;25147;52.142;9.960;2024-01-11T02:32:53;72.67;;;36.10;;
39442;SDS011;25147;52.142;9.960;2024-01-11T02:35:20;71.43;;;35.63;;
39442;SDS011;25147;52.142;9.960;2024-01-11T02:37:47;67.70;;;34.97;;
39442;SDS011;25147;52.142;9.960;2024-01-11T02:40:15;67.40;;;35.50;;
39442;SDS011;25147;52.142;9.960;2024-01-11T02:42:43;67.00;;;35.00;;
39442;SDS011;25147;52.142;9.960;2024-01-11T02:45:10;64.13;;;34.97;;
39442;SDS011;25147;52.142;9.960;2024-01-11T02:47:38;63.50;;;33.57;;
39442;SDS011;25147;52.142;9.960;2024-01-11T02:50:05;63.20;;;34.00;;
39442;SDS011;25147;52.142;9.960;2024-01-11T02:52:33;65.67;;;36.13;;
39442;SDS011;25147;52.142;9.960;2024-01-11T02:55:00;67.20;;;34.47;;
39442;SDS011;25147;52.142;9.960;2024-01-11T02:57:27;68.73;;;36.43;;
39442;SDS011;25147;52.142;9.960;2024-01-11T02:59:55;62.50;;;33.20;;
39442;SDS011;25147;52.142;9.960;2024-01-11T03:02:22;68.47;;;35.03;;
39442;SDS011;25147;52.142;9.960;2024-01-11T03:04:49;64.63;;;34.47;;
39442;SDS011;25147;52.142;9.960;2024-01-11T03:07:16;70.67;;;35.23;;
39442;SDS011;25147;52.142;9.960;2024-01-11T03:09:43;65.17;;;34.97;;
39442;SDS011;25147;52.142;9.960;2024-01-11T03:12:09;70.17;;;35.17;;
39442;SDS011;25147;52.142;9.960;2024-01-11T03:14:36;65.57;;;34.83;;
39442;SDS011;25147;52.142;9.960;2024-01-11T03:17:05;69.20;;;35.27;;
39442;SDS011;25147;52.142;9.960;2024-01-11T03:19:32;66.17;;;34.50;;
39442;SDS011;25147;52.142;9.960;2024-01-11T03:21:58;64.90;;;33.20;;
39442;SDS011;25147;52.142;9.960;2024-01-11T03:24:28;64.73;;;34.17;;
39442;SDS011;25147;52.142;9.960;2024-01-11T03:26:55;65.67;;;34.53;;
39442;SDS011;25147;52.142;9.960;2024-01-11T03:29:22;62.90;;;34.33;;
39442;SDS011;25147;52.142;9.960;2024-01-11T03:31:48;67.10;;;33.50;;
39442;SDS011;25147;52.142;9.960;2024-01-11T03:34:17;66.03;;;34.60;;
39442;SDS011;25147;52.142;9.960;2024-01-11T03:36:43;60.70;;;32.40;;
39442;SDS011;25147;52.142;9.960;2024-01-11T03:39:10;65.07;;;34.03;;
39442;SDS011;25147;52.142;9.960;2024-01-11T03:41:37;59.67;;;33.07;;
39442;SDS011;25147;52.142;9.960;2024-01-11T03:44:04;63.17;;;33.70;;
39442;SDS011;25147;52.142;9.960;2024-01-11T03:46:31;62.27;;;34.07;;
39442;SDS011;25147;52.142;9.960;2024-01-11T03:48:58;60.73;;;33.80;;
39442;SDS011;25147;52.142;9.960;2024-01-11T03:51:26;65.83;;;33.03;;
39442;SDS011;25147;52.142;9.960;2024-01-11T03:53:53;66.07;;;32.63;;
39442;SDS011;25147;52.142;9.960;2024-01-11T03:56:20;63.37;;;32.30;;
39442;SDS011;25147;52.142;9.960;2024-01-11T03:58:47;70.03;;;34.47;;
39442;SDS011;25147;52.142;9.960;2024-01-11T04:01:13;66.63;;;34.07;;
39442;SDS011;25147;52.142;9.960;2024-01-11T04:03:41;65.97;;;33.97;;
39442;SDS011;25147;52.142;9.960;2024-01-11T04:06:08;68.77;;;35.37;;
39442;SDS011;25147;52.142;9.960;2024-01-11T04:08:36;73.80;;;35.27;;
39442;SDS011;25147;52.142;9.960;2024-01-11T04:11:03;68.87;;;35.37;;
39442;SDS011;25147;52.142;9.960;2024-01-11T04:13:30;64.23;;;33.73;;
39442;SDS011;25147;52.142;9.960;2024-01-11T04:15:57;65.00;;;35.03;;
39442;SDS011;25147;52.142;9.960;2024-01-11T04:18:24;62.50;;;31.97;;
39442;SDS011;25147;52.142;9.960;2024-01-11T04:20:51;63.97;;;31.80;;
39442;SDS011;25147;52.142;9.960;2024-01-11T04:23:18;66.03;;;33.83;;
39442;SDS011;25147;52.142;9.960;2024-01-11T04:25:46;66.60;;;33.77;;
39442;SDS011;25147;52.142;9.960;2024-01-11T04:28:13;68.17;;;33.90;;
39442;SDS011;25147;52.142;9.960;2024-01-11T04:30:39;67.77;;;34.23;;
39442;SDS011;25147;52.142;9.960;2024-01-11T04:33:06;59.17;;;32.30;;
39442;SDS011;25147;52.142;9.960;2024-01-11T04:35:33;65.13;;;33.77;;
39442;SDS011;25147;52.142;9.960;2024-01-11T04:38:00;62.73;;;32.07;;
39442;SDS011;25147;52.142;9.960;2024-01-11T04:40:27;59.80;;;31.60;;
39442;SDS011;25147;52.142;9.960;2024-01-11T04:42:55;63.23;;;32.83;;
39442;SDS011;25147;52.142;9.960;2024-01-11T04:45:22;58.43;;;32.23;;
39442;SDS011;25147;52.142;9.960;2024-01-11T04:47:50;60.80;;;33.03;;
39442;SDS011;25147;52.142;9.960;2024-01-11T04:50:17;60.83;;;31.03;;
39442;SDS011;25147;52.142;9.960;2024-01-11T04:52:43;60.93;;;31.03;;
39442;SDS011;25147;52.142;9.960;2024-01-11T04:55:10;65.90;;;32.37;;
39442;SDS011;25147;52.142;9.960;2024-01-11T04:57:37;65.13;;;32.23;;
39442;SDS011;25147;52.142;9.960;2024-01-11T05:00:07;63.53;;;33.70;;
39442;SDS011;25147;52.142;9.960;2024-01-11T05:02:34;67.23;;;33.30;;
39442;SDS011;25147;52.142;9.960;2024-01-11T05:05:01;66.77;;;33.43;;
39442;SDS011;25147;52.142;9.960;2024-01-11T05:07:28;64.10;;;33.07;;
39442;SDS011;25147;52.142;9.960;2024-01-11T05:09:54;66.00;;;32.10;;
39442;SDS011;25147;52.142;9.960;2024-01-11T05:12:21;63.63;;;32.90;;
39442;SDS011;25147;52.142;9.960;2024-01-11T05:14:48;67.47;;;34.27;;
39442;SDS011;25147;52.142;9.960;2024-01-11T05:17:17;64.23;;;33.10;;
39442;SDS011;25147;52.142;9.960;2024-01-11T05:19:43;66.90;;;34.00;;
39442;SDS011;25147;52.142;9.960;2024-01-11T05:22:10;66.07;;;33.67;;
39442;SDS011;25147;52.142;9.960;2024-01-11T05:24:37;62.40;;;32.60;;
39442;SDS011;25147;52.142;9.960;2024-01-11T05:27:04;65.00;;;34.83;;
39442;SDS011;25147;52.142;9.960;2024-01-11T05:29:31;61.93;;;33.83;;
39442;SDS011;25147;52.142;9.960;2024-01-11T05:31:58;63.10;;;31.57;;
39442;SDS011;25147;52.142;9.960;2024-01-11T05:34:26;60.10;;;32.70;;
39442;SDS011;25147;52.142;9.960;2024-01-11T05:36:53;72.17;;;33.87;;
39442;SDS011;25147;52.142;9.960;2024-01-11T05:39:20;63.93;;;33.40;;
39442;SDS011;25147;52.142;9.960;2024-01-11T05:41:47;63.07;;;33.37;;
39442;SDS011;25147;52.142;9.960;2024-01-11T05:44:13;64.03;;;34.47;;
39442;SDS011;25147;52.142;9.960;2024-01-11T05:46:40;62.63;;;32.37;;
39442;SDS011;25147;52.142;9.960;2024-01-11T05:49:07;66.33;;;33.33;;
39442;SDS011;25147;52.142;9.960;2024-01-11T05:51:37;59.27;;;32.50;;
39442;SDS011;25147;52.142;9.960;2024-01-11T05:54:04;66.47;;;35.10;;
39442;SDS011;25147;52.142;9.960;2024-01-11T05:56:31;63.57;;;33.23;;
39442;SDS011;25147;52.142;9.960;2024-01-11T05:58:58;67.57;;;35.13;;
39442;SDS011;25147;52.142;9.960;2024-01-11T06:01:25;66.20;;;35.60;;
39442;SDS011;25147;52.142;9.960;2024-01-11T06:03:52;79.47;;;38.57;;
39442;SDS011;25147;52.142;9.960;2024-01-11T06:06:18;73.50;;;38.20;;
39442;SDS011;25147;52.142;9.960;2024-01-11T06:08:47;77.43;;;37.73;;
39442;SDS011;25147;52.142;9.960;2024-01-11T06:11:14;69.63;;;35.50;;
39442;SDS011;25147;52.142;9.960;2024-01-11T06:13:43;69.07;;;34.57;;
39442;SDS011;25147;52.142;9.960;2024-01-11T06:16:10;64.73;;;34.83;;
39442;SDS011;25147;52.142;9.960;2024-01-11T06:18:37;65.07;;;34.17;;
39442;SDS011;25147;52.142;9.960;2024-01-11T06:21:04;69.80;;;32.83;;
39442;SDS011;25147;52.142;9.960;2024-01-11T06:23:31;64.50;;;33.77;;
39442;SDS011;25147;52.142;9.960;2024-01-11T06:25:59;65.50;;;34.10;;
39442;SDS011;25147;52.142;9.960;2024-01-11T06:28:26;62.03;;;33.07;;
39442;SDS011;25147;52.142;9.960;2024-01-11T06:30:53;66.23;;;33.67;;
39442;SDS011;25147;52.142;9.960;2024-01-11T06:33:21;64.50;;;33.53;;
39442;SDS011;25147;52.142;9.960;2024-01-11T06:35:47;69.27;;;33.93;;
39442;SDS011;25147;52.142;9.960;2024-01-11T06:38:14;72.50;;;34.53;;
39442;SDS011;25147;52.142;9.960;2024-01-11T06:40:42;66.57;;;34.40;;
39442;SDS011;25147;52.142;9.960;2024-01-11T06:43:10;63.90;;;32.30;;
39442;SDS011;25147;52.142;9.960;2024-01-11T06:45:37;65.90;;;33.77;;
39442;SDS011;25147;52.142;9.960;2024-01-11T06:48:05;62.47;;;33.43;;
39442;SDS011;25147;52.142;9.960;2024-01-11T06:50:33;71.00;;;33.97;;
39442;SDS011;25147;52.142;9.960;2024-01-11T06:53:00;65.40;;;33.70;;
39442;SDS011;25147;52.142;9.960;2024-01-11T06:55:28;63.97;;;34.57;;
39442;SDS011;25147;52.142;9.960;2024-01-11T06:57:54;67.93;;;34.53;;
39442;SDS011;25147;52.142;9.960;2024-01-11T07:00:24;66.00;;;34.23;;
39442;SDS011;25147;52.142;9.960;2024-01-11T07:02:54;63.30;;;35.43;;
39442;SDS011;25147;52.142;9.960;2024-01-11T07:05:21;73.80;;;38.17;;
39442;SDS011;25147;52.142;9.960;2024-01-11T07:07:48;64.40;;;34.07;;
39442;SDS011;25147;52.142;9.960;2024-01-11T07:10:15;67.13;;;35.43;;
39442;SDS011;25147;52.142;9.960;2024-01-11T07:12:42;66.70;;;34.53;;
39442;SDS011;25147;52.142;9.960;2024-01-11T07:15:11;68.30;;;35.43;;
39442;SDS011;25147;52.142;9.960;2024-01-11T07:17:39;68.70;;;34.73;;
39442;SDS011;25147;52.142;9.960;2024-01-11T07:20:07;62.37;;;34.30;;
39442;SDS011;25147;52.142;9.960;2024-01-11T07:22:35;71.73;;;35.03;;
39442;SDS011;25147;52.142;9.960;2024-01-11T07:25:02;65.60;;;33.63;;
39442;SDS011;25147;52.142;9.960;2024-01-11T07:27:30;68.47;;;35.17;;
39442;SDS011;25147;52.142;9.960;2024-01-11T07:29:57;69.40;;;35.40;;
39442;SDS011;25147;52.142;9.960;2024-01-11T07:32:24;65.20;;;35.80;;
39442;SDS011;25147;52.142;9.960;2024-01-11T07:34:55;72.33;;;34.10;;
39442;SDS011;25147;52.142;9.960;2024-01-11T07:37:22;60.87;;;33.83;;
39442;SDS011;25147;52.142;9.960;2024-01-11T07:39:51;62.30;;;32.97;;
39442;SDS011;25147;52.142;9.960;2024-01-11T07:42:17;70.53;;;35.53;;
39442;SDS011;25147;52.142;9.960;2024-01-11T07:44:45;63.40;;;32.87;;
39442;SDS011;25147;52.142;9.960;2024-01-11T07:47:15;64.33;;;32.93;;
39442;SDS011;25147;52.142;9.960;2024-01-11T07:49:42;61.23;;;32.40;;
39442;SDS011;25147;52.142;9.960;2024-01-11T07:52:11;67.80;;;34.37;;
39442;SDS011;25147;52.142;9.960;2024-01-11T07:54:38;64.93;;;33.60;;
39442;SDS011;25147;52.142;9.960;2024-01-11T07:57:05;69.10;;;34.07;;
39442;SDS011;25147;52.142;9.960;2024-01-11T07:59:33;75.80;;;33.47;;
39442;SDS011;25147;52.142;9.960;2024-01-11T08:02:01;69.40;;;34.27;;
39442;SDS011;25147;52.142;9.960;2024-01-11T08:04:28;68.47;;;36.17;;
39442;SDS011;25147;52.142;9.960;2024-01-11T08:06:55;62.20;;;34.53;;
39442;SDS011;25147;52.142;9.960;2024-01-11T08:09:26;71.27;;;36.90;;
39442;SDS011;25147;52.142;9.960;2024-01-11T08:11:53;65.90;;;34.63;;
39442;SDS011;25147;52.142;9.960;2024-01-11T08:14:20;66.33;;;36.67;;
39442;SDS011;25147;52.142;9.960;2024-01-11T08:16:48;67.07;;;36.43;;
39442;SDS011;25147;52.142;9.960;2024-01-11T08:19:15;67.53;;;35.23;;
39442;SDS011;25147;52.142;9.960;2024-01-11T08:21:44;67.33;;;35.10;;
39442;SDS011;25147;52.142;9.960;2024-01-11T08:24:11;71.73;;;36.00;;
39442;SDS011;25147;52.142;9.960;2024-01-11T08:26:39;71.37;;;34.73;;
39442;SDS011;25147;52.142;9.960;2024-01-11T08:29:07;68.83;;;36.70;;
39442;SDS011;25147;52.142;9.960;2024-01-11T08:31:34;64.77;;;34.30;;
39442;SDS011;25147;52.142;9.960;2024-01-11T08:34:02;68.47;;;35.60;;
39442;SDS011;25147;52.142;9.960;2024-01-11T08:36:30;67.23;;;36.00;;
39442;SDS011;25147;52.142;9.960;2024-01-11T08:38:59;66.23;;;35.97;;
39442;SDS011;25147;52.142;9.960;2024-01-11T08:41:26;62.73;;;34.27;;
39442;SDS011;25147;52.142;9.960;2024-01-11T08:43:54;66.27;;;35.37;;
39442;SDS011;25147;52.142;9.960;2024-01-11T08:46:24;63.30;;;34.50;;
39442;SDS011;25147;52.142;9.960;2024-01-11T08:48:52;67.43;;;35.77;;
39442;SDS011;25147;52.142;9.960;2024-01-11T08:51:19;66.27;;;35.00;;
39442;SDS011;25147;52.142;9.960;2024-01-11T08:53:46;66.37;;;34.57;;
39442;SDS011;25147;52.142;9.960;2024-01-11T08:56:13;65.70;;;33.93;;
39442;SDS011;25147;52.142;9.960;2024-01-11T08:58:42;61.60;;;34.63;;
39442;SDS011;25147;52.142;9.960;2024-01-11T09:01:12;62.70;;;35.07;;
39442;SDS011;25147;52.142;9.960;2024-01-11T09:03:43;65.70;;;34.73;;
39442;SDS011;25147;52.142;9.960;2024-01-11T09:06:11;62.80;;;32.87;;
39442;SDS011;25147;52.142;9.960;2024-01-11T09:08:39;63.13;;;33.67;;
39442;SDS011;25147;52.142;9.960;2024-01-11T09:11:07;60.63;;;31.67;;
39442;SDS011;25147;52.142;9.960;2024-01-11T09:13:35;63.40;;;33.27;;
39442;SDS011;25147;52.142;9.960;2024-01-11T09:16:03;64.13;;;34.17;;
39442;SDS011;25147;52.142;9.960;2024-01-11T09:18:33;57.57;;;30.43;;
39442;SDS011;25147;52.142;9.960;2024-01-11T09:21:00;54.37;;;30.23;;
39442;SDS011;25147;52.142;9.960;2024-01-11T09:23:29;61.70;;;30.63;;
39442;SDS011;25147;52.142;9.960;2024-01-11T09:25:56;57.87;;;31.20;;
39442;SDS011;25147;52.142;9.960;2024-01-11T09:28:23;55.70;;;30.07;;
39442;SDS011;25147;52.142;9.960;2024-01-11T09:30:51;53.90;;;28.87;;
39442;SDS011;25147;52.142;9.960;2024-01-11T09:33:18;62.27;;;30.30;;
39442;SDS011;25147;52.142;9.960;2024-01-11T09:35:46;53.73;;;28.77;;
39442;SDS011;25147;52.142;9.960;2024-01-11T09:38:14;48.97;;;28.73;;
39442;SDS011;25147;52.142;9.960;2024-01-11T09:40:42;56.87;;;30.23;;
39442;SDS011;25147;52.142;9.960;2024-01-11T09:43:11;56.67;;;29.57;;
39442;SDS011;25147;52.142;9.960;2024-01-11T09:45:42;54.93;;;28.97;;
39442;SDS011;25147;52.142;9.960;2024-01-11T09:48:09;51.53;;;28.50;;
39442;SDS011;25147;52.142;9.960;2024-01-11T09:50:40;48.90;;;27.30;;
39442;SDS011;25147;52.142;9.960;2024-01-11T09:53:09;48.27;;;25.83;;
39442;SDS011;25147;52.142;9.960;2024-01-11T09:55:36;46.07;;;24.00;;
39442;SDS011;25147;52.142;9.960;2024-01-11T09:58:09;44.10;;;22.63;;
39442;SDS011;25147;52.142;9.960;2024-01-11T10:00:38;41.17;;;24.50;;
39442;SDS011;25147;52.142;9.960;2024-01-11T10:03:06;39.03;;;22.53;;
39442;SDS011;25147;52.142;9.960;2024-01-11T10:05:37;42.90;;;22.07;;
39442;SDS011;25147;52.142;9.960;2024-01-11T10:08:05;34.40;;;20.80;;
39442;SDS011;25147;52.142;9.960;2024-01-11T10:10:36;39.03;;;21.23;;
39442;SDS011;25147;52.142;9.960;2024-01-11T10:13:04;38.67;;;21.67;;
39442;SDS011;25147;52.142;9.960;2024-01-11T10:15:33;38.60;;;21.97;;
39442;SDS011;25147;52.142;9.960;2024-01-11T10:18:01;36.60;;;20.97;;
39442;SDS011;25147;52.142;9.960;2024-01-11T10:20:28;37.10;;;21.10;;
39442;SDS011;25147;52.142;9.960;2024-01-11T10:22:57;35.20;;;21.63;;
39442;SDS011;25147;52.142;9.960;2024-01-11T10:25:24;38.40;;;21.10;;
39442;SDS011;25147;52.142;9.960;2024-01-11T10:27:54;34.57;;;20.33;;
39442;SDS011;25147;52.142;9.960;2024-01-11T10:30:23;35.23;;;20.80;;
39442;SDS011;25147;52.142;9.960;2024-01-11T10:32:53;35.03;;;18.73;;
39442;SDS011;25147;52.142;9.960;2024-01-11T10:35:25;28.93;;;16.80;;
39442;SDS011;25147;52.142;9.960;2024-01-11T10:37:52;29.97;;;15.50;;
39442;SDS011;25147;52.142;9.960;2024-01-11T10:40:22;27.80;;;15.10;;
39442;SDS011;25147;52.142;9.960;2024-01-11T10:42:51;26.97;;;14.97;;
39442;SDS011;25147;52.142;9.960;2024-01-11T10:45:25;28.73;;;14.80;;
39442;SDS011;25147;52.142;9.960;2024-01-11T10:47:54;26.27;;;14.57;;
39442;SDS011;25147;52.142;9.960;2024-01-11T10:50:22;24.80;;;13.50;;
39442;SDS011;25147;52.142;9.960;2024-01-11T10:52:53;26.10;;;14.40;;
39442;SDS011;25147;52.142;9.960;2024-01-11T10:55:29;23.23;;;13.50;;
39442;SDS011;25147;52.142;9.960;2024-01-11T10:57:59;26.73;;;13.50;;
39442;SDS011;25147;52.142;9.960;2024-01-11T11:00:27;22.97;;;13.27;;
39442;SDS011;25147;52.142;9.960;2024-01-11T11:02:55;24.87;;;12.67;;
39442;SDS011;25147;52.142;9.960;2024-01-11T11:05:22;20.73;;;12.17;;
39442;SDS011;25147;52.142;9.960;2024-01-11T11:07:52;21.87;;;12.43;;
39442;SDS011;25147;52.142;9.960;2024-01-11T11:10:21;23.00;;;12.00;;
39442;SDS011;25147;52.142;9.960;2024-01-11T11:12:49;18.60;;;10.93;;
39442;SDS011;25147;52.142;9.960;2024-01-11T11:15:18;19.47;;;10.60;;
39442;SDS011;25147;52.142;9.960;2024-01-11T11:17:47;19.90;;;10.50;;
39442;SDS011;25147;52.142;9.960;2024-01-11T11:20:18;14.40;;;8.47;;
39442;SDS011;25147;52.142;9.960;2024-01-11T11:22:48;15.23;;;8.70;;
39442;SDS011;25147;52.142;9.960;2024-01-11T11:25:23;16.97;;;9.87;;
39442;SDS011;25147;52.142;9.960;2024-01-11T11:27:51;17.40;;;9.13;;
39442;SDS011;25147;52.142;9.960;2024-01-11T11:30:24;14.93;;;9.07;;
39442;SDS011;25147;52.142;9.960;2024-01-11T11:32:51;19.00;;;10.13;;
39442;SDS011;25147;52.142;9.960;2024-01-11T11:35:18;16.27;;;9.37;;
39442;SDS011;25147;52.142;9.960;2024-01-11T11:37:48;18.70;;;10.30;;
39442;SDS011;25147;52.142;9.960;2024-01-11T11:40:31;17.80;;;10.13;;
39442;SDS011;25147;52.142;9.960;2024-01-11T11:43:02;16.97;;;9.63;;
39442;SDS011;25147;52.142;9.960;2024-01-11T11:45:32;19.93;;;10.50;;
39442;SDS011;25147;52.142;9.960;2024-01-11T11:47:59;21.70;;;10.37;;
39442;SDS011;25147;52.142;9.960;2024-01-11T11:50:26;18.77;;;11.30;;
39442;SDS011;25147;52.142;9.960;2024-01-11T11:52:56;24.67;;;12.33;;
39442;SDS011;25147;52.142;9.960;2024-01-11T11:55:24;22.60;;;11.83;;
39442;SDS011;25147;52.142;9.960;2024-01-11T11:57:51;25.13;;;11.30;;
39442;SDS011;25147;52.142;9.960;2024-01-11T12:00:20;24.17;;;12.97;;
39442;SDS011;25147;52.142;9.960;2024-01-11T12:02:49;31.17;;;16.23;;
39442;SDS011;25147;52.142;9.960;2024-01-11T12:05:17;23.33;;;12.13;;
39442;SDS011;25147;52.142;9.960;2024-01-11T12:07:45;26.53;;;12.50;;
39442;SDS011;25147;52.142;9.960;2024-01-11T12:10:13;24.37;;;11.60;;
39442;SDS011;25147;52.142;9.960;2024-01-11T12:12:41;19.87;;;10.97;;
39442;SDS011;25147;52.142;9.960;2024-01-11T12:15:08;23.30;;;12.37;;
39442;SDS011;25147;52.142;9.960;2024-01-11T12:17:36;27.73;;;14.00;;
39442;SDS011;25147;52.142;9.960;2024-01-11T12:20:07;25.13;;;13.57;;
39442;SDS011;25147;52.142;9.960;2024-01-11T12:22:34;23.63;;;12.27;;
39442;SDS011;25147;52.142;9.960;2024-01-11T12:25:01;28.30;;;14.50;;
39442;SDS011;25147;52.142;9.960;2024-01-11T12:27:28;29.90;;;14.83;;
39442;SDS011;25147;52.142;9.960;2024-01-11T12:29:58;25.80;;;13.70;;
39442;SDS011;25147;52.142;9.960;2024-01-11T12:32:25;22.40;;;12.33;;
39442;SDS011;25147;52.142;9.960;2024-01-11T12:34:52;23.67;;;13.07;;
39442;SDS011;25147;52.142;9.960;2024-01-11T12:37:22;25.40;;;13.07;;
39442;SDS011;25147;52.142;9.960;2024-01-11T12:39:49;22.87;;;12.03;;
39442;SDS011;25147;52.142;9.960;2024-01-11T12:42:16;24.80;;;13.10;;
39442;SDS011;25147;52.142;9.960;2024-01-11T12:44:43;24.30;;;11.63;;
39442;SDS011;25147;52.142;9.960;2024-01-11T12:47:11;22.87;;;11.87;;
39442;SDS011;25147;52.142;9.960;2024-01-11T12:49:42;18.53;;;10.57;;
39442;SDS011;25147;52.142;9.960;2024-01-11T12:52:15;21.70;;;11.37;;
39442;SDS011;25147;52.142;9.960;2024-01-11T12:54:44;22.40;;;11.80;;
39442;SDS011;25147;52.142;9.960;2024-01-11T12:57:11;21.50;;;11.93;;
39442;SDS011;25147;52.142;9.960;2024-01-11T12:59:38;20.33;;;10.93;;
39442;SDS011;25147;52.142;9.960;2024-01-11T13:02:05;24.57;;;12.73;;
39442;SDS011;25147;52.142;9.960;2024-01-11T13:04:33;17.87;;;10.60;;
39442;SDS011;25147;52.142;9.960;2024-01-11T13:07:01;22.60;;;11.73;;
39442;SDS011;25147;52.142;9.960;2024-01-11T13:09:29;26.17;;;12.90;;
39442;SDS011;25147;52.142;9.960;2024-01-11T13:11:59;20.87;;;11.90;;
39442;SDS011;25147;52.142;9.960;2024-01-11T13:14:26;20.67;;;11.23;;
39442;SDS011;25147;52.142;9.960;2024-01-11T13:16:54;23.73;;;12.20;;
39442;SDS011;25147;52.142;9.960;2024-01-11T13:19:23;26.10;;;12.93;;
39442;SDS011;25147;52.142;9.960;2024-01-11T13:21:51;22.73;;;13.00;;
39442;SDS011;25147;52.142;9.960;2024-01-11T13:24:18;27.70;;;12.37;;
39442;SDS011;25147;52.142;9.960;2024-01-11T13:26:45;19.23;;;11.60;;
39442;SDS011;25147;52.142;9.960;2024-01-11T13:29:14;22.30;;;11.90;;
39442;SDS011;25147;52.142;9.960;2024-01-11T13:31:41;21.13;;;11.70;;
39442;SDS011;25147;52.142;9.960;2024-01-11T13:34:08;20.83;;;11.57;;
39442;SDS011;25147;52.142;9.960;2024-01-11T13:36:36;19.63;;;11.70;;
39442;SDS011;25147;52.142;9.960;2024-01-11T13:39:04;23.03;;;10.80;;
39442;SDS011;25147;52.142;9.960;2024-01-11T13:41:33;21.20;;;11.53;;
39442;SDS011;25147;52.142;9.960;2024-01-11T13:44:01;23.47;;;12.00;;
39442;SDS011;25147;52.142;9.960;2024-01-11T13:46:32;18.27;;;11.20;;
39442;SDS011;25147;52.142;9.960;2024-01-11T13:49:01;21.43;;;12.37;;
39442;SDS011;25147;52.142;9.960;2024-01-11T13:51:30;21.07;;;11.17;;
39442;SDS011;25147;52.142;9.960;2024-01-11T13:53:59;21.93;;;11.93;;
39442;SDS011;25147;52.142;9.960;2024-01-11T13:56:28;20.97;;;13.20;;
39442;SDS011;25147;52.142;9.960;2024-01-11T13:58:56;17.30;;;11.13;;
39442;SDS011;25147;52.142;9.960;2024-01-11T14:01:23;19.53;;;11.17;;
39442;SDS011;25147;52.142;9.960;2024-01-11T14:03:53;16.97;;;10.57;;
39442;SDS011;25147;52.142;9.960;2024-01-11T14:06:20;15.67;;;7.97;;
39442;SDS011;25147;52.142;9.960;2024-01-11T14:08:48;18.27;;;10.33;;
39442;SDS011;25147;52.142;9.960;2024-01-11T14:11:18;20.97;;;11.10;;
39442;SDS011;25147;52.142;9.960;2024-01-11T14:13:51;18.97;;;11.63;;
39442;SDS011;25147;52.142;9.960;2024-01-11T14:16:19;17.77;;;11.10;;
39442;SDS011;25147;52.142;9.960;2024-01-11T14:18:47;21.67;;;12.00;;
39442;SDS011;25147;52.142;9.960;2024-01-11T14:21:17;19.63;;;11.93;;
39442;SDS011;25147;52.142;9.960;2024-01-11T14:23:45;19.07;;;12.00;;